Time;durP1;ratioP1;P1;durP2;ratioP2;P2;SDS_P1;SDS_P2;PMS_P1;PMS_P2;Temp;Humidity;BMP_temperature;BMP_pressure;BME280_temperature;BME280_humidity;BME280_pressure;Samples;Min_cycle;Max_cycle;Signal;HPM_P1;HPM_P2
2022/12/07 00:01:26;;;;;;;8.93;8.00;;;4.80;99.90;;;;;;5053950;28;20441;-61
2022/12/07 00:03:56;;;;;;;8.60;7.37;;;4.80;99.90;;;;;;5054038;28;20452;-61
2022/12/07 00:06:25;;;;;;;8.63;7.73;;;4.80;99.90;;;;;;5053802;28;20457;-61
2022/12/07 00:08:53;;;;;;;9.63;7.97;;;4.80;99.90;;;;;;5054198;28;20445;-62
2022/12/07 00:11:21;;;;;;;9.80;7.87;;;4.80;99.90;;;;;;5054139;28;20468;-61
2022/12/07 00:17:25;;;;;;;10.67;7.73;;;4.70;99.90;;;;;;5050779;28;20484;-61
2022/12/07 00:20:11;;;;;;;9.93;8.90;;;4.70;99.90;;;;;;5045997;28;20877;-61
2022/12/07 00:22:39;;;;;;;7.33;6.60;;;4.70;99.90;;;;;;5054078;28;20480;-61
2022/12/07 00:25:07;;;;;;;9.47;8.03;;;4.80;99.90;;;;;;5053745;28;20809;-62
2022/12/07 00:27:34;;;;;;;9.03;7.97;;;4.90;99.90;;;;;;5053658;28;20978;-61
2022/12/07 00:30:02;;;;;;;11.87;8.80;;;4.80;99.90;;;;;;5053584;28;20931;-61
2022/12/07 00:32:29;;;;;;;9.37;8.30;;;4.70;99.90;;;;;;5053865;28;20456;-61
2022/12/07 00:34:57;;;;;;;9.37;8.20;;;4.80;99.90;;;;;;5053783;28;20437;-61
2022/12/07 00:37:24;;;;;;;9.50;8.50;;;4.90;99.90;;;;;;5053266;28;20991;-61
2022/12/07 00:39:53;;;;;;;12.03;9.37;;;4.80;99.90;;;;;;5053302;28;20940;-61
2022/12/07 00:42:20;;;;;;;9.37;7.87;;;4.70;99.90;;;;;;5053225;28;20452;-61
2022/12/07 00:44:47;;;;;;;10.90;9.00;;;4.60;99.90;;;;;;5053335;28;20453;-61
2022/12/07 00:47:15;;;;;;;10.30;8.10;;;4.60;99.90;;;;;;5053415;28;20473;-61
2022/12/07 00:49:42;;;;;;;11.77;10.03;;;4.60;99.90;;;;;;5053259;28;20445;-61
2022/12/07 00:52:09;;;;;;;12.57;11.13;;;4.50;99.90;;;;;;5053186;28;20449;-61
2022/12/07 00:54:37;;;;;;;9.77;8.77;;;4.60;99.90;;;;;;5053136;28;20931;-61
2022/12/07 00:57:21;;;;;;;10.37;9.13;;;4.50;99.90;;;;;;5052987;28;20517;-61
2022/12/07 00:59:49;;;;;;;10.10;8.87;;;4.50;99.90;;;;;;5053043;28;20927;-61
2022/12/07 01:02:16;;;;;;;10.63;9.13;;;4.60;99.90;;;;;;5053195;28;20997;-61
2022/12/07 01:04:43;;;;;;;11.23;9.23;;;4.60;99.90;;;;;;5053136;28;20476;-61
2022/12/07 01:07:11;;;;;;;10.03;9.07;;;4.50;99.90;;;;;;5053400;28;20469;-61
2022/12/07 01:09:38;;;;;;;11.30;8.93;;;4.60;99.90;;;;;;5053370;28;20453;-61
2022/12/07 01:12:06;;;;;;;10.60;9.50;;;4.60;99.90;;;;;;5052912;28;20510;-61
2022/12/07 01:14:35;;;;;;;10.33;9.10;;;4.60;99.90;;;;;;5053065;28;20932;-61
2022/12/07 01:17:02;;;;;;;12.13;9.33;;;4.50;99.90;;;;;;5052755;28;20481;-61
2022/12/07 01:19:30;;;;;;;16.00;10.00;;;4.50;99.90;;;;;;5053318;28;20448;-61
2022/12/07 01:21:57;;;;;;;11.33;10.10;;;4.50;99.90;;;;;;5052838;28;20627;-61
2022/12/07 01:24:24;;;;;;;13.43;9.60;;;4.50;99.90;;;;;;5053514;28;20503;-61
2022/12/07 01:26:52;;;;;;;11.83;9.13;;;4.50;99.90;;;;;;5056667;28;20527;-61
2022/12/07 01:29:19;;;;;;;11.57;9.53;;;4.50;99.90;;;;;;5057266;28;20460;-61
2022/12/07 01:31:50;;;;;;;12.40;9.87;;;4.50;99.90;;;;;;5056855;28;20478;-61
2022/12/07 01:34:17;;;;;;;11.10;9.93;;;4.40;99.90;;;;;;5057188;28;20457;-61
2022/12/07 01:36:44;;;;;;;10.10;9.00;;;4.50;99.90;;;;;;5056690;28;20480;-61
2022/12/07 01:39:12;;;;;;;11.27;9.77;;;4.40;99.90;;;;;;5057089;28;20453;-61
2022/12/07 01:41:43;;;;;;;10.27;9.23;;;4.50;99.90;;;;;;5056932;28;20450;-61
2022/12/07 01:44:17;;;;;;;10.50;9.03;;;4.50;99.90;;;;;;5056782;28;20433;-61
2022/12/07 01:46:45;;;;;;;10.40;8.50;;;4.50;99.90;;;;;;5056522;28;20457;-61
2022/12/07 01:49:22;;;;;;;12.03;9.80;;;4.50;99.90;;;;;;5057020;28;20449;-61
2022/12/07 01:51:52;;;;;;;11.23;10.10;;;4.40;99.90;;;;;;5056597;28;20892;-61
2022/12/07 01:54:21;;;;;;;12.03;9.30;;;4.40;99.90;;;;;;5056637;28;20491;-62
2022/12/07 01:56:52;;;;;;;11.40;9.83;;;4.40;99.90;;;;;;5056585;28;20979;-61
2022/12/07 01:59:24;;;;;;;11.40;9.47;;;4.40;99.90;;;;;;5056680;28;20429;-61
2022/12/07 02:01:52;;;;;;;11.30;9.30;;;4.40;99.90;;;;;;5056422;28;20444;-61
2022/12/07 02:04:22;;;;;;;10.80;9.43;;;4.40;99.90;;;;;;5056224;28;20453;-61
2022/12/07 02:06:51;;;;;;;18.43;10.93;;;4.50;99.90;;;;;;5056226;28;21049;-61
2022/12/07 02:09:18;;;;;;;13.33;10.10;;;4.50;99.90;;;;;;5056323;28;20849;-61
2022/12/07 02:11:46;;;;;;;13.67;11.47;;;4.50;99.90;;;;;;5056399;28;20452;-61
2022/12/07 02:14:13;;;;;;;10.10;8.97;;;4.50;99.90;;;;;;5056038;28;20449;-61
2022/12/07 02:16:52;;;;;;;10.63;9.43;;;4.60;99.90;;;;;;5056455;28;20464;-61
2022/12/07 02:20:04;;;;;;;13.20;10.33;;;4.60;99.90;;;;;;5056095;28;20903;-61
2022/12/07 02:23:16;;;;;;;14.73;11.30;;;4.50;99.90;;;;;;5056037;28;20499;-61
2022/12/07 02:25:58;;;;;;;13.77;9.00;;;4.60;99.90;;;;;;5045890;28;20506;-61
2022/12/07 02:28:30;;;;;;;13.83;10.33;;;4.50;99.90;;;;;;5055769;28;20534;-61
2022/12/07 02:31:03;;;;;;;10.03;8.73;;;4.50;99.90;;;;;;5056181;28;20827;-61
2022/12/07 02:33:36;;;;;;;10.53;9.43;;;4.50;99.90;;;;;;5055868;28;20429;-61
2022/12/07 02:36:09;;;;;;;13.03;9.23;;;4.50;99.90;;;;;;5055885;28;20527;-61
2022/12/07 02:38:40;;;;;;;15.00;9.20;;;4.60;99.90;;;;;;5055903;28;20869;-61
2022/12/07 02:41:14;;;;;;;12.97;10.57;;;4.60;99.90;;;;;;5055728;28;20463;-61
2022/12/07 02:43:45;;;;;;;12.50;10.20;;;4.60;99.90;;;;;;5055709;28;20460;-61
2022/12/07 02:46:18;;;;;;;11.70;7.80;;;4.50;99.90;;;;;;5055509;28;20473;-61
2022/12/07 02:48:47;;;;;;;9.20;8.00;;;4.50;99.90;;;;;;5055586;28;20434;-61
2022/12/07 02:51:14;;;;;;;12.40;9.90;;;4.50;99.90;;;;;;5055543;28;20449;-61
2022/12/07 02:53:44;;;;;;;12.30;9.67;;;4.40;99.90;;;;;;5055473;28;20491;-61
2022/12/07 02:56:20;;;;;;;11.73;10.27;;;4.50;99.90;;;;;;5055291;28;20481;-61
2022/12/07 02:59:00;;;;;;;10.13;9.20;;;4.50;99.90;;;;;;5055182;28;20465;-61
2022/12/07 03:01:37;;;;;;;12.53;10.70;;;4.60;99.90;;;;;;5055657;28;20437;-62
2022/12/07 03:04:22;;;;;;;9.73;8.10;;;4.60;99.90;;;;;;5055179;28;20464;-61
2022/12/07 03:06:54;;;;;;;9.60;8.73;;;4.60;99.90;;;;;;5055320;28;20473;-61
2022/12/07 03:09:26;;;;;;;12.37;9.50;;;4.50;99.90;;;;;;5055535;28;20438;-61
2022/12/07 03:12:01;;;;;;;10.33;9.20;;;4.50;99.90;;;;;;5055369;28;20430;-61
2022/12/07 03:14:35;;;;;;;9.13;8.13;;;4.50;99.90;;;;;;5055115;28;20901;-61
2022/12/07 03:17:14;;;;;;;9.33;8.43;;;4.50;99.90;;;;;;5055192;28;20863;-61
2022/12/07 03:19:44;;;;;;;10.00;8.80;;;4.50;99.90;;;;;;5054859;28;20822;-61
2022/12/07 03:22:13;;;;;;;9.77;8.60;;;4.50;99.90;;;;;;5055014;28;20936;-62
2022/12/07 03:24:47;;;;;;;13.50;9.20;;;4.50;99.90;;;;;;5054744;28;20510;-61
2022/12/07 03:27:20;;;;;;;9.53;8.50;;;4.50;99.90;;;;;;5054576;28;20540;-61
2022/12/07 03:29:52;;;;;;;10.63;8.63;;;4.50;99.90;;;;;;5054716;28;20464;-61
2022/12/07 03:32:26;;;;;;;11.63;9.40;;;4.40;99.90;;;;;;5055204;28;20429;-61
2022/12/07 03:35:01;;;;;;;12.20;10.73;;;4.40;99.90;;;;;;5054725;28;20430;-61
2022/12/07 03:37:34;;;;;;;11.33;9.93;;;4.40;99.90;;;;;;5054476;28;20502;-61
2022/12/07 03:40:07;;;;;;;9.67;7.87;;;4.50;99.90;;;;;;5054559;28;20487;-61
2022/12/07 03:42:35;;;;;;;10.23;8.63;;;4.50;99.90;;;;;;5054715;28;20487;-61
2022/12/07 03:45:05;;;;;;;13.60;9.30;;;4.60;99.90;;;;;;5054810;28;20502;-61
2022/12/07 03:47:38;;;;;;;12.63;10.37;;;4.60;99.90;;;;;;5053851;28;20430;-61
2022/12/07 03:50:11;;;;;;;11.43;8.30;;;4.50;99.90;;;;;;5054429;28;20958;-61
2022/12/07 03:52:42;;;;;;;9.27;8.30;;;4.60;99.90;;;;;;5054553;28;20946;-61
2022/12/07 03:55:16;;;;;;;8.43;7.53;;;4.60;99.90;;;;;;5054147;28;20493;-61
2022/12/07 03:57:46;;;;;;;10.40;8.60;;;4.50;99.90;;;;;;5054186;28;20555;-61
2022/12/07 04:00:14;;;;;;;9.77;8.30;;;4.50;99.90;;;;;;5054462;28;20456;-61
2022/12/07 04:02:44;;;;;;;11.73;8.27;;;4.40;99.90;;;;;;5054512;28;20449;-61
2022/12/07 04:05:12;;;;;;;10.13;8.67;;;4.40;99.90;;;;;;5053896;28;20473;-61
2022/12/07 04:07:40;;;;;;;9.90;8.60;;;4.30;99.90;;;;;;5054029;28;20958;-61
2022/12/07 04:10:08;;;;;;;10.67;8.97;;;4.40;99.90;;;;;;5053649;28;20959;-61
2022/12/07 04:12:35;;;;;;;10.73;8.70;;;4.40;99.90;;;;;;5054085;28;20449;-61
2022/12/07 04:15:03;;;;;;;7.90;7.00;;;4.40;99.90;;;;;;5053826;28;20445;-61
2022/12/07 04:17:31;;;;;;;10.10;8.80;;;4.60;99.90;;;;;;5053781;28;20487;-61
2022/12/07 04:19:59;;;;;;;11.97;8.90;;;4.60;99.90;;;;;;5054041;28;20445;-61
2022/12/07 04:22:27;;;;;;;11.50;9.60;;;4.50;99.90;;;;;;5054087;28;20449;-61
2022/12/07 04:24:54;;;;;;;10.20;8.37;;;4.30;99.90;;;;;;5053838;28;20464;-61
2022/12/07 04:27:22;;;;;;;8.00;7.20;;;4.30;99.90;;;;;;5053635;28;20495;-61
2022/12/07 04:29:49;;;;;;;10.87;7.90;;;4.30;99.90;;;;;;5054073;28;20497;-61
2022/12/07 04:32:17;;;;;;;8.43;6.80;;;4.20;99.90;;;;;;5053838;28;20824;-61
2022/12/07 04:34:44;;;;;;;8.00;7.20;;;4.30;99.90;;;;;;5053567;28;20472;-61
2022/12/07 04:37:13;;;;;;;8.63;7.60;;;4.40;99.90;;;;;;5053391;28;20469;-60
2022/12/07 04:39:41;;;;;;;8.67;7.77;;;4.40;99.90;;;;;;5053756;28;20452;-61
2022/12/07 04:42:08;;;;;;;8.47;6.60;;;4.40;99.90;;;;;;5053727;28;20450;-60
2022/12/07 04:44:36;;;;;;;9.50;6.90;;;4.40;99.90;;;;;;5053387;28;20457;-61
2022/12/07 04:47:03;;;;;;;8.67;7.20;;;4.40;99.90;;;;;;5053202;28;20467;-61
2022/12/07 04:49:31;;;;;;;7.50;6.70;;;4.40;99.90;;;;;;5053656;28;20441;-61
2022/12/07 04:51:58;;;;;;;8.30;6.90;;;4.50;99.90;;;;;;5053167;28;20811;-62
2022/12/07 04:54:27;;;;;;;5.70;4.83;;;4.50;99.90;;;;;;5053656;28;20801;-61
2022/12/07 04:56:54;;;;;;;7.53;6.77;;;4.50;99.90;;;;;;5053113;28;20472;-61
2022/12/07 04:59:22;;;;;;;7.37;6.67;;;4.50;99.90;;;;;;5052467;28;20486;-61
2022/12/07 05:01:49;;;;;;;6.50;5.87;;;4.60;99.90;;;;;;5053498;28;20456;-61
2022/12/07 05:04:17;;;;;;;6.73;6.10;;;4.60;99.90;;;;;;5053153;28;20485;-61
2022/12/07 05:06:45;;;;;;;5.80;5.00;;;4.60;99.90;;;;;;5052988;28;20477;-61
2022/12/07 05:09:12;;;;;;;6.60;5.90;;;4.60;99.90;;;;;;5053239;28;20864;-61
2022/12/07 05:11:41;;;;;;;7.07;5.40;;;4.70;99.90;;;;;;5052927;28;20456;-61
2022/12/07 05:14:12;;;;;;;7.13;5.83;;;4.60;99.90;;;;;;5053037;28;20814;-61
2022/12/07 05:16:40;;;;;;;6.40;5.50;;;4.60;99.90;;;;;;5053112;28;20842;-61
2022/12/07 05:19:08;;;;;;;7.93;5.60;;;4.50;99.90;;;;;;5053250;28;20477;-61
2022/12/07 05:21:36;;;;;;;6.23;5.13;;;4.50;99.90;;;;;;5053269;28;20445;-61
2022/12/07 05:24:04;;;;;;;6.07;5.47;;;4.50;99.90;;;;;;5053252;28;20802;-61
2022/12/07 05:26:32;;;;;;;5.60;5.00;;;4.50;99.90;;;;;;5052885;28;20481;-61
2022/12/07 05:29:01;;;;;;;6.97;6.00;;;4.40;99.90;;;;;;5052947;28;20444;-61
2022/12/07 05:31:29;;;;;;;5.40;4.87;;;4.40;99.90;;;;;;5052647;28;20933;-61
2022/12/07 05:33:56;;;;;;;5.93;5.33;;;4.50;99.90;;;;;;5053177;28;20795;-61
2022/12/07 05:36:24;;;;;;;6.33;5.73;;;4.40;99.90;;;;;;5052739;28;20472;-61
2022/12/07 05:38:51;;;;;;;9.73;5.80;;;4.30;99.90;;;;;;5052740;28;20479;-61
2022/12/07 05:44:07;;;;;;;9.23;6.47;;;4.20;99.90;;;;;;5052991;28;20962;-61
2022/12/07 05:46:35;;;;;;;6.73;6.03;;;4.10;99.90;;;;;;5052686;28;20475;-61
2022/12/07 05:49:03;;;;;;;9.03;8.13;;;4.10;99.90;;;;;;5053032;28;20450;-61
2022/12/07 05:51:30;;;;;;;10.07;7.50;;;4.00;99.90;;;;;;5052563;28;20457;-61
2022/12/07 05:53:58;;;;;;;9.30;7.47;;;3.90;99.90;;;;;;5053018;28;20464;-61
2022/12/07 05:56:26;;;;;;;10.37;7.57;;;3.90;99.90;;;;;;5053081;28;20473;-61
2022/12/07 06:01:40;;;;;;;9.17;7.20;;;3.80;99.90;;;;;;5052785;28;20409;-61
2022/12/07 06:04:07;;;;;;;11.33;7.23;;;3.90;99.90;;;;;;5052384;28;20904;-61
2022/12/07 06:06:35;;;;;;;10.30;7.43;;;3.80;99.90;;;;;;5052534;28;20465;-61
2022/12/07 06:09:02;;;;;;;8.40;6.70;;;3.90;99.90;;;;;;5052726;28;20441;-61
2022/12/07 06:14:15;;;;;;;8.97;7.90;;;3.90;99.90;;;;;;5055833;28;20791;-61
2022/12/07 06:16:43;;;;;;;7.97;7.00;;;3.90;99.90;;;;;;5055885;28;20469;-61
2022/12/07 06:19:11;;;;;;;8.40;6.40;;;3.90;99.90;;;;;;5055797;28;20516;-61
2022/12/07 06:21:39;;;;;;;8.80;6.77;;;4.10;99.90;;;;;;5055891;28;20832;-61
2022/12/07 06:24:07;;;;;;;10.10;7.20;;;4.20;99.90;;;;;;5055470;28;20498;-61
2022/12/07 06:26:34;;;;;;;8.13;6.53;;;4.20;99.90;;;;;;5055150;28;20472;-61
2022/12/07 06:29:02;;;;;;;8.17;7.30;;;4.20;99.90;;;;;;5055898;28;20783;-61
2022/12/07 06:31:29;;;;;;;12.40;8.03;;;4.10;99.90;;;;;;5055995;28;20446;-61
2022/12/07 06:34:01;;;;;;;10.87;7.30;;;4.10;99.90;;;;;;5055798;28;20456;-61
2022/12/07 06:36:28;;;;;;;9.53;7.40;;;4.00;99.90;;;;;;5055440;28;20466;-61
2022/12/07 06:38:56;;;;;;;12.97;7.60;;;4.00;99.90;;;;;;5055623;28;20504;-61
2022/12/07 06:41:23;;;;;;;8.10;7.10;;;3.90;99.90;;;;;;5055553;28;20445;-60
2022/12/07 06:43:51;;;;;;;9.07;7.50;;;3.90;99.90;;;;;;5055536;28;20457;-61
2022/12/07 06:46:19;;;;;;;8.83;7.40;;;3.80;99.90;;;;;;5055383;28;20465;-60
2022/12/07 06:48:47;;;;;;;8.53;7.10;;;3.90;99.90;;;;;;5055611;28;20452;-60
2022/12/07 06:51:16;;;;;;;7.60;6.90;;;4.00;99.90;;;;;;5055179;28;20962;-60
2022/12/07 06:53:43;;;;;;;8.23;7.30;;;4.00;99.90;;;;;;5055283;28;20936;-60
2022/12/07 06:56:11;;;;;;;12.00;6.13;;;4.00;99.90;;;;;;5055732;28;20791;-61
2022/12/07 06:58:38;;;;;;;8.87;7.37;;;4.10;99.90;;;;;;5055482;28;20477;-61
2022/12/07 07:01:10;;;;;;;8.90;6.70;;;4.20;99.90;;;;;;5055231;28;20519;-62
2022/12/07 07:03:38;;;;;;;7.13;6.37;;;4.20;99.90;;;;;;5054885;28;20904;-61
2022/12/07 07:06:07;;;;;;;7.80;6.40;;;4.20;99.90;;;;;;5055421;28;20875;-61
2022/12/07 07:08:36;;;;;;;6.60;5.90;;;4.20;99.90;;;;;;5054930;28;20450;-61
2022/12/07 07:11:04;;;;;;;6.53;5.77;;;4.20;99.90;;;;;;5054850;28;20544;-61
2022/12/07 07:13:32;;;;;;;6.23;5.63;;;4.20;99.90;;;;;;5054681;28;20458;-60
2022/12/07 07:15:59;;;;;;;6.67;6.07;;;4.20;99.90;;;;;;5055138;28;20465;-61
2022/12/07 07:18:27;;;;;;;6.80;5.80;;;4.30;99.90;;;;;;5054682;28;20487;-60
2022/12/07 07:20:55;;;;;;;7.23;6.47;;;4.40;99.90;;;;;;5054975;28;20932;-61
2022/12/07 07:23:23;;;;;;;7.30;6.10;;;4.40;99.90;;;;;;5053454;28;20453;-61
2022/12/07 07:25:52;;;;;;;6.60;6.00;;;4.40;99.90;;;;;;5054737;28;20481;-61
2022/12/07 07:28:19;;;;;;;7.93;5.60;;;4.40;99.90;;;;;;5054416;28;20488;-61
2022/12/07 07:30:47;;;;;;;8.53;6.00;;;4.40;99.90;;;;;;5054547;28;20797;-62
2022/12/07 07:33:14;;;;;;;6.53;5.93;;;4.40;99.90;;;;;;5054046;28;20456;-61
2022/12/07 07:35:42;;;;;;;7.27;5.90;;;4.40;99.90;;;;;;5054353;28;20472;-61
2022/12/07 07:38:10;;;;;;;6.17;5.57;;;4.50;99.90;;;;;;5054354;28;20449;-61
2022/12/07 07:40:37;;;;;;;7.00;5.90;;;4.40;99.90;;;;;;5054511;28;20809;-61
2022/12/07 07:43:06;;;;;;;8.30;5.80;;;4.30;99.90;;;;;;5054210;28;20857;-61
2022/12/07 07:45:34;;;;;;;8.37;5.30;;;4.30;99.90;;;;;;5054338;28;20469;-61
2022/12/07 07:48:01;;;;;;;6.63;5.50;;;4.40;99.90;;;;;;5054035;28;20449;-61
2022/12/07 07:50:29;;;;;;;6.30;5.13;;;4.40;99.90;;;;;;5053943;28;20448;-60
2022/12/07 07:52:58;;;;;;;7.53;6.53;;;4.40;99.90;;;;;;5053796;28;20939;-61
2022/12/07 07:55:25;;;;;;;6.23;5.30;;;4.40;99.90;;;;;;5054051;28;20473;-61
2022/12/07 07:57:53;;;;;;;7.67;5.50;;;4.50;99.90;;;;;;5054080;28;20477;-60
2022/12/07 08:00:23;;;;;;;7.67;5.60;;;4.40;99.90;;;;;;5053015;28;20493;-60
2022/12/07 08:02:50;;;;;;;6.33;5.73;;;4.40;99.90;;;;;;5053654;28;20449;-60
2022/12/07 08:05:19;;;;;;;9.13;5.37;;;4.40;99.90;;;;;;5053376;28;20465;-61
2022/12/07 08:07:47;;;;;;;7.60;5.20;;;4.40;99.90;;;;;;5053893;28;20517;-61
2022/12/07 08:10:15;;;;;;;9.90;6.57;;;4.50;99.90;;;;;;5053155;28;20460;-61
2022/12/07 08:15:28;;;;;;;7.23;5.53;;;4.50;99.90;;;;;;5053392;28;20452;-61
2022/12/07 08:17:56;;;;;;;11.03;5.50;;;4.60;99.90;;;;;;5053330;28;20429;-61
2022/12/07 08:20:23;;;;;;;12.07;5.40;;;4.50;99.90;;;;;;5053346;28;21020;-61
2022/12/07 08:22:51;;;;;;;5.83;5.13;;;4.60;99.90;;;;;;5053190;28;20449;-60
2022/12/07 08:25:19;;;;;;;5.80;4.47;;;4.80;99.90;;;;;;5053287;28;20537;-60
2022/12/07 08:27:46;;;;;;;6.03;5.43;;;4.80;99.90;;;;;;5052964;28;20480;-61
2022/12/07 08:30:14;;;;;;;7.00;5.50;;;4.70;99.90;;;;;;5053334;28;20446;-61
2022/12/07 08:32:45;;;;;;;7.87;5.70;;;4.70;99.90;;;;;;5053525;28;20449;-61
2022/12/07 08:35:12;;;;;;;6.90;5.70;;;4.80;99.90;;;;;;5052726;28;20473;-62
2022/12/07 08:37:40;;;;;;;5.10;4.27;;;4.80;99.90;;;;;;5053317;28;20794;-61
2022/12/07 08:40:10;;;;;;;6.37;5.50;;;4.90;99.90;;;;;;5052860;28;20504;-60
2022/12/07 08:42:39;;;;;;;6.13;5.13;;;5.00;99.90;;;;;;5053116;28;20461;-61
2022/12/07 08:45:09;;;;;;;7.83;5.27;;;5.00;99.90;;;;;;5052850;28;20453;-61
2022/12/07 08:47:41;;;;;;;5.90;4.53;;;5.00;99.90;;;;;;5053259;28;20757;-62
2022/12/07 08:50:12;;;;;;;5.73;5.23;;;5.00;99.90;;;;;;5053258;28;20505;-61
2022/12/07 08:52:41;;;;;;;5.03;4.57;;;5.10;99.90;;;;;;5052930;28;20430;-61
2022/12/07 08:55:12;;;;;;;5.90;4.90;;;5.20;99.90;;;;;;5052970;28;20464;-61
2022/12/07 08:57:40;;;;;;;6.90;5.80;;;5.30;99.90;;;;;;5053106;28;20499;-61
2022/12/07 09:00:09;;;;;;;5.70;5.10;;;5.30;99.90;;;;;;5052763;28;20488;-61
2022/12/07 09:02:37;;;;;;;9.20;4.93;;;5.20;99.90;;;;;;5052900;28;20527;-62
2022/12/07 09:05:05;;;;;;;6.57;5.70;;;5.30;99.90;;;;;;5052779;28;20455;-62
2022/12/07 09:07:35;;;;;;;7.97;5.43;;;5.30;99.90;;;;;;5052500;28;20978;-61
2022/12/07 09:10:02;;;;;;;5.70;5.20;;;5.40;99.90;;;;;;5053015;28;20433;-61
2022/12/07 09:12:30;;;;;;;5.80;4.67;;;5.40;99.90;;;;;;5052275;28;20441;-61
2022/12/07 09:14:57;;;;;;;5.00;4.40;;;5.60;99.90;;;;;;5052429;28;20802;-61
2022/12/07 09:17:25;;;;;;;5.60;4.97;;;5.60;99.90;;;;;;5052626;28;20455;-61
2022/12/07 09:19:52;;;;;;;5.20;4.70;;;5.70;99.90;;;;;;5052754;28;20542;-61
2022/12/07 09:22:19;;;;;;;6.03;4.57;;;5.90;99.90;;;;;;5052769;28;20810;-61
2022/12/07 09:24:48;;;;;;;5.90;4.40;;;5.80;99.90;;;;;;5052775;28;20457;-61
2022/12/07 09:27:17;;;;;;;4.73;3.63;;;5.80;99.90;;;;;;5052146;28;20487;-61
2022/12/07 09:29:45;;;;;;;4.27;3.87;;;5.80;99.90;;;;;;5053046;28;20445;-61
2022/12/07 09:32:12;;;;;;;5.53;4.00;;;5.90;99.90;;;;;;5052237;28;20995;-61
2022/12/07 09:34:40;;;;;;;4.50;4.10;;;5.80;99.90;;;;;;5052278;28;20994;-61
2022/12/07 09:37:07;;;;;;;5.93;4.50;;;5.90;99.90;;;;;;5052267;28;20800;-61
2022/12/07 09:39:35;;;;;;;7.97;5.33;;;6.10;99.90;;;;;;5052258;28;20535;-61
2022/12/07 09:42:07;;;;;;;7.87;4.97;;;6.00;99.90;;;;;;5052695;28;20450;-61
2022/12/07 09:44:35;;;;;;;7.20;4.50;;;6.00;99.90;;;;;;5052425;28;20434;-61
2022/12/07 09:47:03;;;;;;;5.13;4.63;;;6.00;99.90;;;;;;5055262;28;20833;-61
2022/12/07 09:49:33;;;;;;;6.17;4.93;;;6.10;99.90;;;;;;5056341;28;20446;-61
2022/12/07 09:52:04;;;;;;;4.40;4.00;;;6.20;99.90;;;;;;5056004;28;20931;-61
2022/12/07 09:54:32;;;;;;;4.60;4.17;;;6.20;99.90;;;;;;5056403;28;20436;-61
2022/12/07 09:57:00;;;;;;;4.10;3.63;;;6.00;99.90;;;;;;5055956;28;20469;-61
2022/12/07 09:59:30;;;;;;;5.30;3.53;;;6.00;99.90;;;;;;5056040;28;20534;-61
2022/12/07 10:02:17;;;;;;;4.70;4.27;;;6.20;99.90;;;;;;5055852;28;20449;-61
2022/12/07 10:04:46;;;;;;;6.00;5.10;;;6.30;99.90;;;;;;5056204;28;20425;-61
2022/12/07 10:07:13;;;;;;;7.47;4.60;;;6.10;99.90;;;;;;5055836;28;20499;-61
2022/12/07 10:09:41;;;;;;;4.03;3.63;;;6.10;99.90;;;;;;5055780;28;20441;-61
2022/12/07 10:12:11;;;;;;;3.73;3.40;;;6.20;99.90;;;;;;5055927;28;20814;-61
2022/12/07 10:14:53;;;;;;;5.40;4.50;;;6.10;99.90;;;;;;5055482;28;20445;-61
2022/12/07 10:17:33;;;;;;;4.30;3.90;;;6.10;99.90;;;;;;5055449;28;20433;-61
2022/12/07 10:20:20;;;;;;;4.27;3.50;;;5.90;99.90;;;;;;5055263;28;20476;-61
2022/12/07 10:23:04;;;;;;;4.80;4.10;;;6.10;99.90;;;;;;5055238;28;20791;-60
2022/12/07 10:25:33;;;;;;;4.30;3.90;;;6.00;99.90;;;;;;5055065;28;20485;-61
2022/12/07 10:28:14;;;;;;;4.60;4.10;;;6.00;99.90;;;;;;5054828;28;20484;-61
2022/12/07 10:30:58;;;;;;;4.07;3.67;;;6.30;99.90;;;;;;5055466;28;20444;-62
2022/12/07 10:33:35;;;;;;;4.67;3.50;;;6.50;99.90;;;;;;5055941;28;20792;-61
2022/12/07 10:36:18;;;;;;;4.63;4.03;;;6.50;99.90;;;;;;5055142;28;20465;-60
2022/12/07 10:38:48;;;;;;;4.63;4.23;;;6.70;99.90;;;;;;5055206;28;20438;-61
2022/12/07 10:41:16;;;;;;;5.30;3.50;;;6.40;99.90;;;;;;5055066;28;20488;-60
2022/12/07 10:43:54;;;;;;;4.00;3.53;;;6.40;99.90;;;;;;5054926;28;20492;-61
2022/12/07 10:47:06;;;;;;;4.07;3.67;;;6.40;99.90;;;;;;5055527;28;20498;-60
2022/12/07 10:50:15;;;;;;;5.67;5.17;;;6.30;99.90;;;;;;5055361;28;20798;-60
2022/12/07 10:53:08;;;;;;;4.40;3.40;;;6.30;99.90;;;;;;5055079;28;20463;-60
2022/12/07 10:55:48;;;;;;;5.20;3.57;;;6.40;99.90;;;;;;5044997;28;20953;-60
2022/12/07 10:58:45;;;;;;;3.37;3.07;;;6.40;99.90;;;;;;5055113;28;20430;-60
2022/12/07 11:01:18;;;;;;;3.77;3.43;;;6.40;99.90;;;;;;5055186;28;20470;-61
2022/12/07 11:04:16;;;;;;;4.30;3.90;;;6.20;99.90;;;;;;5054647;28;20430;-60
2022/12/07 11:06:53;;;;;;;3.60;3.30;;;6.10;99.90;;;;;;5053878;28;20484;-62
2022/12/07 11:09:56;;;;;;;4.53;3.37;;;6.20;99.90;;;;;;5054645;28;20423;-60
2022/12/07 11:12:34;;;;;;;4.13;3.50;;;6.00;99.90;;;;;;5054957;28;20429;-61
2022/12/07 11:15:09;;;;;;;8.60;5.03;;;6.30;99.90;;;;;;5054839;28;20771;-61
2022/12/07 11:17:46;;;;;;;4.00;3.60;;;6.20;99.90;;;;;;5054632;28;20425;-60
2022/12/07 11:20:30;;;;;;;3.53;3.20;;;6.30;99.90;;;;;;5054673;28;20469;-62
2022/12/07 11:23:05;;;;;;;5.93;4.00;;;6.20;99.90;;;;;;5054344;28;20484;-61
2022/12/07 11:25:43;;;;;;;4.00;3.70;;;6.20;99.90;;;;;;5054783;28;20479;-61
2022/12/07 11:28:25;;;;;;;3.80;3.40;;;6.20;99.90;;;;;;5054298;28;20483;-61
2022/12/07 11:31:02;;;;;;;8.17;3.53;;;6.10;99.90;;;;;;5054801;28;20541;-61
2022/12/07 11:33:39;;;;;;;3.30;2.90;;;6.20;99.90;;;;;;5054212;28;20909;-60
2022/12/07 11:36:18;;;;;;;2.97;2.77;;;6.30;99.90;;;;;;5054409;28;20648;-60
2022/12/07 11:38:51;;;;;;;2.83;2.63;;;6.30;99.90;;;;;;5054203;28;20434;-60
2022/12/07 11:41:27;;;;;;;3.00;2.70;;;6.40;99.90;;;;;;5054085;28;20465;-60
2022/12/07 11:44:02;;;;;;;2.83;2.63;;;6.50;99.90;;;;;;5054135;28;20444;-60
2022/12/07 11:46:42;;;;;;;3.10;2.80;;;6.40;99.90;;;;;;5054343;28;21023;-60
2022/12/07 11:49:14;;;;;;;3.90;3.10;;;6.40;99.90;;;;;;5054354;28;20432;-60
2022/12/07 11:51:43;;;;;;;3.43;3.07;;;6.30;99.90;;;;;;5054006;28;20464;-62
2022/12/07 11:54:17;;;;;;;4.23;3.33;;;6.40;99.90;;;;;;5053757;28;20449;-60
2022/12/07 11:56:51;;;;;;;3.90;3.17;;;6.30;99.90;;;;;;5054001;28;20472;-60
2022/12/07 11:59:23;;;;;;;4.60;4.17;;;6.20;99.90;;;;;;5053802;28;20456;-60
2022/12/07 12:01:57;;;;;;;5.47;4.73;;;6.20;99.90;;;;;;5053660;28;20469;-60
2022/12/07 12:04:43;;;;;;;5.60;5.00;;;6.10;99.90;;;;;;5053685;28;20938;-60
2022/12/07 12:07:17;;;;;;;4.87;4.47;;;6.10;99.90;;;;;;5053753;28;20461;-59
2022/12/07 12:09:52;;;;;;;5.90;5.27;;;6.20;99.90;;;;;;5052834;28;20429;-60
2022/12/07 12:12:58;;;;;;;5.80;5.30;;;6.20;99.90;;;;;;5053305;28;20444;-60
2022/12/07 12:15:49;;;;;;;5.40;4.90;;;6.00;99.90;;;;;;5053725;28;20563;-61
2022/12/07 12:18:42;;;;;;;6.40;5.20;;;6.00;99.90;;;;;;5053283;28;20429;-60
2022/12/07 12:21:13;;;;;;;6.00;4.93;;;6.00;99.90;;;;;;5053389;28;20508;-61
2022/12/07 12:23:45;;;;;;;5.70;5.07;;;6.10;99.90;;;;;;5053410;28;20449;-62
2022/12/07 12:26:19;;;;;;;7.53;5.87;;;6.20;99.90;;;;;;5053479;28;20477;-60
2022/12/07 12:28:56;;;;;;;9.33;6.50;;;6.20;99.90;;;;;;5052992;28;20514;-60
2022/12/07 12:31:38;;;;;;;6.03;5.43;;;6.30;99.90;;;;;;5053643;28;20429;-61
2022/12/07 12:34:34;;;;;;;7.67;6.53;;;6.00;99.90;;;;;;5053284;28;20758;-60
2022/12/07 12:37:02;;;;;;;6.00;5.33;;;5.90;99.90;;;;;;5053213;28;20469;-60
2022/12/07 12:39:29;;;;;;;7.60;5.63;;;6.00;99.90;;;;;;5053080;28;20460;-61
2022/12/07 12:42:07;;;;;;;7.10;6.40;;;5.70;99.90;;;;;;5052936;28;20489;-61
2022/12/07 12:44:58;;;;;;;6.80;5.57;;;5.50;99.90;;;;;;5053289;28;20479;-61
2022/12/07 12:47:59;;;;;;;5.90;5.30;;;5.60;99.90;;;;;;5052744;28;20451;-61
2022/12/07 12:50:30;;;;;;;6.20;4.90;;;5.80;99.90;;;;;;5051963;28;20572;-61
2022/12/07 12:53:13;;;;;;;6.80;5.80;;;5.90;99.90;;;;;;5053006;28;20524;-61
2022/12/07 12:56:22;;;;;;;8.30;5.80;;;6.00;99.90;;;;;;5052912;28;20481;-61
2022/12/07 12:58:50;;;;;;;5.83;5.00;;;6.10;99.90;;;;;;5052715;28;20904;-61
2022/12/07 13:01:43;;;;;;;6.87;5.17;;;5.90;99.90;;;;;;5052576;28;20481;-61
2022/12/07 13:04:51;;;;;;;6.93;4.90;;;6.00;99.90;;;;;;5047639;28;20460;-61
2022/12/07 13:07:56;;;;;;;8.20;6.10;;;6.20;99.90;;;;;;5052694;28;20430;-61
2022/12/07 13:10:40;;;;;;;6.67;5.90;;;6.20;99.90;;;;;;5052648;28;20864;-61
2022/12/07 13:13:33;;;;;;;7.00;6.40;;;5.90;99.90;;;;;;5052656;28;20444;-61
2022/12/07 13:16:39;;;;;;;5.63;5.10;;;5.80;99.90;;;;;;5052637;28;20469;-61
2022/12/07 13:19:40;;;;;;;6.73;6.07;;;6.10;99.90;;;;;;5053029;28;20469;-62
2022/12/07 13:22:42;;;;;;;5.90;5.13;;;6.40;99.90;;;;;;5055754;28;20465;-62
2022/12/07 13:25:13;;;;;;;6.10;4.90;;;6.40;99.90;;;;;;5054535;28;20475;-61
2022/12/07 13:27:44;;;;;;;5.73;5.00;;;6.40;99.90;;;;;;5055841;28;20476;-61
2022/12/07 13:30:17;;;;;;;4.93;4.13;;;6.30;99.90;;;;;;5056760;28;20918;-61
2022/12/07 13:32:52;;;;;;;5.13;4.70;;;6.10;99.90;;;;;;5056659;28;20433;-61
2022/12/07 13:35:34;;;;;;;4.90;4.40;;;6.10;99.90;;;;;;5056414;28;20978;-61